createdAt,value
2018-12-29T00:02:11.062Z,31.68
2018-12-29T00:04:39.514Z,34.83
2018-12-29T00:07:08.015Z,35.28
2018-12-29T00:09:36.462Z,37.63
2018-12-29T00:12:04.886Z,37.85
2018-12-29T00:14:33.348Z,35.68
2018-12-29T00:17:03.498Z,42.10
2018-12-29T00:19:31.942Z,36.65
2018-12-29T00:22:00.368Z,35.52
2018-12-29T00:24:28.849Z,33.65
2018-12-29T00:26:57.274Z,32.90
2018-12-29T00:29:25.732Z,41.05
2018-12-29T00:31:54.154Z,40.80
2018-12-29T00:34:22.681Z,32.67
2018-12-29T00:36:51.256Z,35.78
2018-12-29T00:39:19.688Z,36.98
2018-12-29T00:41:48.141Z,35.52
2018-12-29T00:44:16.570Z,34.48
2018-12-29T00:46:45.023Z,39.00
2018-12-29T00:49:13.440Z,28.17
2018-12-29T00:51:41.888Z,32.93
2018-12-29T00:54:10.315Z,35.35
2018-12-29T00:56:38.753Z,30.40
2018-12-29T00:59:07.179Z,31.20
2018-12-29T01:01:35.638Z,38.58
2018-12-29T01:04:04.061Z,30.70
2018-12-29T01:06:32.521Z,30.65
2018-12-29T01:09:00.970Z,28.95
2018-12-29T01:11:29.429Z,28.38
2018-12-29T01:13:57.829Z,33.35
2018-12-29T01:16:26.383Z,35.13
2018-12-29T01:18:54.798Z,37.05
2018-12-29T01:21:23.227Z,31.17
2018-12-29T01:23:51.683Z,32.67
2018-12-29T01:26:20.109Z,29.32
2018-12-29T01:28:48.563Z,32.78
2018-12-29T01:31:17.071Z,35.13
2018-12-29T01:33:45.527Z,40.12
2018-12-29T01:36:13.947Z,32.88
2018-12-29T01:38:42.403Z,36.20
2018-12-29T01:41:10.834Z,35.92
2018-12-29T01:43:39.286Z,32.45
2018-12-29T01:46:07.710Z,34.10
2018-12-29T01:48:36.150Z,30.02
2018-12-29T01:51:04.582Z,33.58
2018-12-29T01:53:33.078Z,33.70
2018-12-29T01:56:01.506Z,32.63
2018-12-29T01:58:30.147Z,38.42
2018-12-29T02:00:58.589Z,42.15
2018-12-29T02:03:27.010Z,40.85
2018-12-29T02:05:55.474Z,31.80
2018-12-29T02:08:23.923Z,33.18
2018-12-29T02:10:52.414Z,40.63
2018-12-29T02:13:22.379Z,38.10
2018-12-29T02:15:50.824Z,39.42
2018-12-29T02:18:19.314Z,38.65
2018-12-29T02:20:49.366Z,28.77
2018-12-29T02:23:17.809Z,33.63
2018-12-29T02:25:46.247Z,42.80
2018-12-29T02:28:14.806Z,45.28
2018-12-29T02:30:43.336Z,39.80
2018-12-29T02:33:11.758Z,39.18
2018-12-29T02:35:40.207Z,40.23
2018-12-29T02:38:08.622Z,41.50
2018-12-29T02:40:37.079Z,35.13
2018-12-29T02:43:05.985Z,44.03
2018-12-29T02:45:34.426Z,38.65
2018-12-29T02:48:02.862Z,49.08
2018-12-29T02:50:31.322Z,38.85
2018-12-29T02:53:01.089Z,42.67
2018-12-29T02:55:29.751Z,44.40
2018-12-29T02:57:58.201Z,42.98
2018-12-29T03:00:26.638Z,41.00
2018-12-29T03:02:55.087Z,48.80
2018-12-29T03:05:23.510Z,45.33
2018-12-29T03:07:51.970Z,41.08
2018-12-29T03:10:20.451Z,50.50
2018-12-29T03:12:48.995Z,46.53
2018-12-29T03:15:17.436Z,45.10
2018-12-29T03:17:45.868Z,43.55
2018-12-29T03:20:14.291Z,39.45
2018-12-29T03:22:42.755Z,38.50
2018-12-29T03:25:11.185Z,39.98
2018-12-29T03:27:39.624Z,40.43
2018-12-29T03:30:08.202Z,39.73
2018-12-29T03:32:36.657Z,40.17
2018-12-29T03:35:05.878Z,40.17
2018-12-29T03:37:34.402Z,43.80
2018-12-29T03:40:02.839Z,44.73
2018-12-29T03:42:31.268Z,47.23
2018-12-29T03:44:59.767Z,46.37
2018-12-29T03:47:28.205Z,42.20
2018-12-29T03:49:56.629Z,43.78
2018-12-29T03:52:25.082Z,44.18
2018-12-29T03:54:53.525Z,39.90
2018-12-29T03:57:21.946Z,40.70
2018-12-29T03:59:50.398Z,48.08
2018-12-29T04:02:18.878Z,42.43
2018-12-29T04:04:47.305Z,47.60
2018-12-29T04:07:15.740Z,50.08
2018-12-29T04:09:44.233Z,48.52
2018-12-29T04:12:14.744Z,51.75
2018-12-29T04:14:45.785Z,55.60
2018-12-29T04:17:14.304Z,51.77
2018-12-29T04:19:42.762Z,47.93
2018-12-29T04:22:11.203Z,51.48
2018-12-29T04:24:39.657Z,54.30
2018-12-29T04:27:08.086Z,48.50
2018-12-29T04:29:36.543Z,45.28
2018-12-29T04:32:05.039Z,51.30
2018-12-29T04:34:33.475Z,41.20
2018-12-29T04:37:01.923Z,51.05
2018-12-29T04:39:30.365Z,47.50
2018-12-29T04:41:58.782Z,47.50
2018-12-29T04:44:27.215Z,44.85
2018-12-29T04:46:55.660Z,47.35
2018-12-29T04:49:24.087Z,49.10
2018-12-29T04:51:52.529Z,53.35
2018-12-29T04:54:20.956Z,52.45
2018-12-29T04:56:49.398Z,41.58
2018-12-29T04:59:17.841Z,47.23
2018-12-29T05:01:46.286Z,43.25
2018-12-29T05:04:14.896Z,55.23
2018-12-29T05:06:43.338Z,36.98
2018-12-29T05:09:11.779Z,51.20
2018-12-29T05:11:40.214Z,40.10
2018-12-29T05:14:08.639Z,42.98
2018-12-29T05:16:37.104Z,44.45
2018-12-29T05:19:05.526Z,43.63
2018-12-29T05:21:33.946Z,43.92
2018-12-29T05:24:02.415Z,44.20
2018-12-29T05:26:30.926Z,43.78
2018-12-29T05:28:59.366Z,46.10
2018-12-29T05:31:27.873Z,36.90
2018-12-29T05:33:56.330Z,40.17
2018-12-29T05:36:26.347Z,42.75
2018-12-29T05:38:54.800Z,47.58
2018-12-29T05:41:23.234Z,51.75
2018-12-29T05:43:51.682Z,49.83
2018-12-29T05:46:20.707Z,58.13
2018-12-29T05:48:49.242Z,48.52
2018-12-29T05:51:17.678Z,47.00
2018-12-29T05:53:46.126Z,52.90
2018-12-29T05:56:14.551Z,46.25
2018-12-29T05:58:43.006Z,51.63
2018-12-29T06:01:11.440Z,53.42
2018-12-29T06:03:39.894Z,62.43
2018-12-29T06:06:08.376Z,53.15
2018-12-29T06:08:36.881Z,58.92
2018-12-29T06:11:05.306Z,54.23
2018-12-29T06:13:33.762Z,62.48
2018-12-29T06:16:02.203Z,60.98
2018-12-29T06:18:30.630Z,63.70
2018-12-29T06:20:59.078Z,72.47
2018-12-29T06:23:27.510Z,61.37
2018-12-29T06:25:55.970Z,65.85
2018-12-29T06:28:24.420Z,66.67
2018-12-29T06:30:52.870Z,65.12
2018-12-29T06:33:21.311Z,52.13
2018-12-29T06:35:49.819Z,57.58
2018-12-29T06:38:18.237Z,57.58
2018-12-29T06:40:46.687Z,60.75
2018-12-29T06:43:15.114Z,63.23
2018-12-29T06:45:43.567Z,62.40
2018-12-29T06:48:12.070Z,65.35
2018-12-29T06:50:40.534Z,58.20
2018-12-29T06:53:08.930Z,66.92
2018-12-29T06:55:37.404Z,63.30
2018-12-29T06:58:05.828Z,60.90
2018-12-29T07:00:34.267Z,57.62
2018-12-29T07:03:02.727Z,61.18
2018-12-29T07:05:31.165Z,69.85
2018-12-29T07:07:59.675Z,64.90
2018-12-29T07:10:29.786Z,56.58
2018-12-29T07:12:58.238Z,61.28
2018-12-29T07:15:26.807Z,73.17
2018-12-29T07:17:55.261Z,69.72
2018-12-29T07:20:23.694Z,56.18
2018-12-29T07:22:52.145Z,54.13
2018-12-29T07:25:20.567Z,52.70
2018-12-29T07:27:49.027Z,72.90
2018-12-29T07:30:17.454Z,69.80
2018-12-29T07:32:45.899Z,71.60
2018-12-29T07:35:14.326Z,66.42
2018-12-29T07:37:42.771Z,71.05
2018-12-29T07:40:11.199Z,69.80
2018-12-29T07:42:39.654Z,64.30
2018-12-29T07:45:08.086Z,67.42
2018-12-29T07:47:36.539Z,70.87
2018-12-29T07:50:05.347Z,66.77
2018-12-29T07:52:33.790Z,73.55
2018-12-29T07:55:02.219Z,72.08
2018-12-29T07:57:30.662Z,70.03
2018-12-29T07:59:59.159Z,68.15
2018-12-29T08:02:27.582Z,66.15
2018-12-29T08:04:56.026Z,73.10
2018-12-29T08:07:24.546Z,81.17
2018-12-29T08:09:53.003Z,68.60
2018-12-29T08:12:21.435Z,81.72
2018-12-29T08:14:49.894Z,91.20
2018-12-29T08:17:18.340Z,90.03
2018-12-29T08:19:46.768Z,91.92
2018-12-29T08:22:15.203Z,107.47
2018-12-29T08:24:43.662Z,94.87
2018-12-29T08:27:12.098Z,105.83
2018-12-29T08:29:40.549Z,102.15
2018-12-29T08:32:08.973Z,98.33
2018-12-29T08:34:37.423Z,85.77
2018-12-29T08:37:05.867Z,87.00
2018-12-29T08:39:34.321Z,83.37
2018-12-29T08:42:02.753Z,83.95
2018-12-29T08:44:31.176Z,83.30
2018-12-29T08:47:04.390Z,86.15
2018-12-29T08:49:29.924Z,65.25
2018-12-29T08:51:58.341Z,76.20
2018-12-29T08:54:26.815Z,70.90
2018-12-29T08:56:55.313Z,81.22
2018-12-29T08:59:23.735Z,81.40
2018-12-29T09:01:52.241Z,76.75
2018-12-29T09:04:20.669Z,73.47
2018-12-29T09:06:49.118Z,82.72
2018-12-29T09:09:17.550Z,76.05
2018-12-29T09:11:46.008Z,89.72
2018-12-29T09:14:14.437Z,81.90
2018-12-29T09:16:42.911Z,84.85
2018-12-29T09:19:11.397Z,120.33
2018-12-29T09:21:39.898Z,138.18
2018-12-29T09:24:08.328Z,137.68
2018-12-29T09:26:36.788Z,141.22
2018-12-29T09:29:05.235Z,138.00
2018-12-29T09:31:33.739Z,131.00
2018-12-29T09:34:02.174Z,135.48
2018-12-29T09:36:30.645Z,116.45
2018-12-29T09:38:59.129Z,98.47
2018-12-29T09:41:27.636Z,110.85
2018-12-29T09:43:56.087Z,97.08
2018-12-29T09:46:24.511Z,84.32
2018-12-29T09:48:52.956Z,78.95
2018-12-29T09:51:21.390Z,59.58
2018-12-29T09:53:49.835Z,64.05
2018-12-29T09:56:18.263Z,53.95
2018-12-29T09:58:46.794Z,50.75
2018-12-29T10:01:15.217Z,51.05
2018-12-29T10:03:43.670Z,52.35
2018-12-29T10:06:12.995Z,57.78
2018-12-29T10:08:43.134Z,43.83
2018-12-29T10:11:11.621Z,46.77
2018-12-29T10:13:40.078Z,44.63
2018-12-29T10:16:08.491Z,38.75
2018-12-29T10:18:36.942Z,42.78
2018-12-29T10:21:05.370Z,43.55
2018-12-29T10:23:33.791Z,39.60
2018-12-29T10:26:02.290Z,38.60
2018-12-29T10:28:30.716Z,34.13
2018-12-29T10:30:59.162Z,38.92
2018-12-29T10:33:27.588Z,40.00
2018-12-29T10:35:56.050Z,32.20
2018-12-29T10:38:24.495Z,33.40
2018-12-29T10:40:52.966Z,32.08
2018-12-29T10:43:22.953Z,33.60
2018-12-29T10:45:51.411Z,32.85
2018-12-29T10:48:19.838Z,42.10
2018-12-29T10:50:48.301Z,39.20
2018-12-29T10:53:16.780Z,31.82
2018-12-29T10:55:45.270Z,43.33
2018-12-29T10:58:13.799Z,48.15
2018-12-29T11:00:42.343Z,48.83
2018-12-29T11:03:10.777Z,42.88
2018-12-29T11:05:39.237Z,53.02
2018-12-29T11:08:07.658Z,45.63
2018-12-29T11:10:36.090Z,40.95
2018-12-29T11:13:04.531Z,43.13
2018-12-29T11:15:32.958Z,47.10
2018-12-29T11:18:01.401Z,47.23
2018-12-29T11:20:29.899Z,40.70
2018-12-29T11:22:58.342Z,34.00
2018-12-29T11:25:26.762Z,27.55
2018-12-29T11:27:55.203Z,39.23
2018-12-29T11:30:23.622Z,24.90
2018-12-29T11:32:52.071Z,31.45
2018-12-29T11:35:20.497Z,34.05
2018-12-29T11:37:48.967Z,44.15
2018-12-29T11:40:17.406Z,29.40
2018-12-29T11:42:45.847Z,24.40
2018-12-29T11:45:14.282Z,21.33
2018-12-29T11:47:49.601Z,22.00
2018-12-29T11:50:12.908Z,27.07
2018-12-29T11:52:41.359Z,28.20
2018-12-29T11:55:09.866Z,29.30
2018-12-29T11:57:38.298Z,25.97
2018-12-29T12:00:08.512Z,27.20
2018-12-29T12:02:37.056Z,22.75
2018-12-29T12:05:06.430Z,25.68
2018-12-29T12:07:36.461Z,22.30
2018-12-29T12:10:05.631Z,24.07
2018-12-29T12:12:34.443Z,22.95
2018-12-29T12:15:03.007Z,22.13
2018-12-29T12:17:31.600Z,25.08
2018-12-29T12:20:00.250Z,19.17
2018-12-29T12:22:28.806Z,26.33
2018-12-29T12:24:57.733Z,22.55
2018-12-29T12:27:26.156Z,23.40
2018-12-29T12:29:55.072Z,29.75
2018-12-29T12:32:23.599Z,27.90
2018-12-29T12:34:52.434Z,123.45
2018-12-29T12:37:20.972Z,46.28
2018-12-29T12:39:49.610Z,24.72
2018-12-29T12:42:18.141Z,23.32
2018-12-29T12:44:46.592Z,26.52
2018-12-29T12:47:15.114Z,24.67
2018-12-29T12:49:43.614Z,23.07
2018-12-29T12:52:12.117Z,25.97
2018-12-29T12:54:40.666Z,28.83
2018-12-29T12:57:09.542Z,25.75
2018-12-29T12:59:38.244Z,27.85
2018-12-29T13:02:06.774Z,32.03
2018-12-29T13:04:35.207Z,32.17
2018-12-29T13:07:03.829Z,26.82
2018-12-29T13:09:33.795Z,29.10
2018-12-29T13:12:02.269Z,30.23
2018-12-29T13:14:30.687Z,27.93
2018-12-29T13:16:59.169Z,24.30
2018-12-29T13:19:28.683Z,25.70
2018-12-29T13:21:57.274Z,22.35
2018-12-29T13:24:27.598Z,31.27
2018-12-29T13:26:56.063Z,30.65
2018-12-29T13:29:24.607Z,25.45
2018-12-29T13:31:53.069Z,26.68
2018-12-29T13:34:23.135Z,23.40
2018-12-29T13:36:51.656Z,28.25
2018-12-29T13:39:20.090Z,20.10
2018-12-29T13:41:49.055Z,28.50
2018-12-29T13:44:17.534Z,27.20
2018-12-29T13:46:45.965Z,31.85
2018-12-29T13:49:14.500Z,32.75
2018-12-29T13:51:43.002Z,31.37
2018-12-29T13:54:11.903Z,28.70
2018-12-29T13:56:40.349Z,32.23
2018-12-29T13:59:08.771Z,28.77
2018-12-29T14:01:37.231Z,27.65
2018-12-29T14:04:05.749Z,28.95
2018-12-29T14:06:34.494Z,28.25
2018-12-29T14:09:04.106Z,31.57
2018-12-29T14:11:32.534Z,27.50
2018-12-29T14:14:00.983Z,39.15
2018-12-29T14:16:29.459Z,32.93
2018-12-29T14:18:57.924Z,31.73
2018-12-29T14:21:26.350Z,31.00
2018-12-29T14:23:54.783Z,29.32
2018-12-29T14:26:23.224Z,29.20
2018-12-29T14:28:51.657Z,36.85
2018-12-29T14:31:20.215Z,42.75
2018-12-29T14:33:48.671Z,34.53
2018-12-29T14:36:17.128Z,33.80
2018-12-29T14:38:45.636Z,34.25
2018-12-29T14:41:14.095Z,33.80
2018-12-29T14:43:42.608Z,36.65
2018-12-29T14:46:11.119Z,38.13
2018-12-29T14:48:39.726Z,33.02
2018-12-29T14:51:08.187Z,30.43
2018-12-29T14:53:36.624Z,28.73
2018-12-29T14:56:05.176Z,42.03
2018-12-29T14:58:33.643Z,31.17
2018-12-29T15:01:02.121Z,39.55
2018-12-29T15:03:30.625Z,33.35
2018-12-29T15:05:59.079Z,45.20
2018-12-29T15:08:27.511Z,36.05
2018-12-29T15:10:55.998Z,32.58
2018-12-29T15:13:24.914Z,33.88
2018-12-29T15:15:53.377Z,37.55
2018-12-29T15:18:22.324Z,37.20
2018-12-29T15:20:51.222Z,34.15
2018-12-29T15:23:19.664Z,38.50
2018-12-29T15:25:48.095Z,50.23
2018-12-29T15:28:16.561Z,62.30
2018-12-29T15:30:46.885Z,66.25
2018-12-29T15:33:15.502Z,39.05
2018-12-29T15:35:43.999Z,40.80
2018-12-29T15:38:12.524Z,45.08
2018-12-29T15:40:40.946Z,48.87
2018-12-29T15:43:09.399Z,47.65
2018-12-29T15:45:38.318Z,47.20
2018-12-29T15:48:06.847Z,48.28
2018-12-29T15:50:35.295Z,43.00
2018-12-29T15:53:04.230Z,49.00
2018-12-29T15:55:32.707Z,49.13
2018-12-29T15:58:01.543Z,50.90
2018-12-29T16:00:30.058Z,61.68
2018-12-29T16:02:58.508Z,54.00
2018-12-29T16:05:26.947Z,48.95
2018-12-29T16:07:55.773Z,48.58
2018-12-29T16:10:27.373Z,55.45
2018-12-29T16:12:57.515Z,48.52
2018-12-29T16:15:25.983Z,53.87
2018-12-29T16:17:54.530Z,44.10
2018-12-29T16:20:23.053Z,55.12
2018-12-29T16:22:51.885Z,60.75
2018-12-29T16:25:20.431Z,62.93
2018-12-29T16:27:50.531Z,53.83
2018-12-29T16:30:19.122Z,51.65
2018-12-29T16:32:47.834Z,46.90
2018-12-29T16:35:16.359Z,49.48
2018-12-29T16:37:44.871Z,54.05
2018-12-29T16:40:13.387Z,59.98
2018-12-29T16:42:42.003Z,93.10
2018-12-29T16:45:10.633Z,48.87
2018-12-29T16:47:39.122Z,51.60
2018-12-29T16:50:08.626Z,64.75
2018-12-29T16:52:37.194Z,61.60
2018-12-29T16:55:06.015Z,65.92
2018-12-29T16:57:34.518Z,49.23
2018-12-29T17:00:03.412Z,39.40
2018-12-29T17:02:32.025Z,46.98
2018-12-29T17:05:00.816Z,55.85
2018-12-29T17:07:29.345Z,48.33
2018-12-29T17:09:57.911Z,46.98
2018-12-29T17:12:26.377Z,48.52
2018-12-29T17:14:54.863Z,45.05
2018-12-29T17:17:23.339Z,38.30
2018-12-29T17:19:51.866Z,43.75
2018-12-29T17:22:20.411Z,40.33
2018-12-29T17:24:48.958Z,41.73
2018-12-29T17:27:17.495Z,44.95
2018-12-29T17:29:45.910Z,50.10
2018-12-29T17:32:14.363Z,50.75
2018-12-29T17:34:42.876Z,49.85
2018-12-29T17:37:11.336Z,47.38
2018-12-29T17:39:41.685Z,45.08
2018-12-29T17:42:10.172Z,68.87
2018-12-29T17:44:38.611Z,53.63
2018-12-29T17:47:07.043Z,44.23
2018-12-29T17:49:35.490Z,47.10
2018-12-29T17:52:04.307Z,35.40
2018-12-29T17:54:34.543Z,45.28
2018-12-29T17:57:02.979Z,37.60
2018-12-29T17:59:31.565Z,66.45
2018-12-29T18:02:00.074Z,78.25
2018-12-29T18:04:28.791Z,48.83
2018-12-29T18:06:57.319Z,40.33
2018-12-29T18:09:25.820Z,43.80
2018-12-29T18:11:54.532Z,39.38
2018-12-29T18:14:23.057Z,47.03
2018-12-29T18:16:51.603Z,46.23
2018-12-29T18:19:20.324Z,46.20
2018-12-29T18:21:48.746Z,43.33
2018-12-29T18:24:17.291Z,47.43
2018-12-29T18:26:45.823Z,49.08
2018-12-29T18:29:14.362Z,62.17
2018-12-29T18:31:42.877Z,56.88
2018-12-29T18:34:11.405Z,76.97
2018-12-29T18:36:39.822Z,50.38
2018-12-29T18:39:08.392Z,65.97
2018-12-29T18:41:36.920Z,55.90
2018-12-29T18:44:05.811Z,45.17
2018-12-29T18:46:34.279Z,42.88
2018-12-29T18:49:02.706Z,44.98
2018-12-29T18:51:31.171Z,48.00
2018-12-29T18:53:59.602Z,45.28
2018-12-29T18:56:28.234Z,45.10
2018-12-29T18:58:56.742Z,54.85
2018-12-29T19:01:25.271Z,50.55
2018-12-29T19:03:53.775Z,43.58
2018-12-29T19:06:22.295Z,51.02
2018-12-29T19:08:50.722Z,45.60
2018-12-29T19:11:19.159Z,48.13
2018-12-29T19:13:47.603Z,47.78
2018-12-29T19:16:16.404Z,49.00
2018-12-29T19:18:44.938Z,50.65
2018-12-29T19:21:13.658Z,47.20
2018-12-29T19:23:42.467Z,47.20
2018-12-29T19:26:11.272Z,52.08
2018-12-29T19:28:40.087Z,47.13
2018-12-29T19:31:09.020Z,50.78
2018-12-29T19:33:37.491Z,51.58
2018-12-29T19:36:05.998Z,56.55
2018-12-29T19:38:34.477Z,47.70
2018-12-29T19:41:02.968Z,53.20
2018-12-29T19:43:31.898Z,44.25
2018-12-29T19:46:00.317Z,48.28
2018-12-29T19:48:28.802Z,48.80
2018-12-29T19:50:57.723Z,47.00
2018-12-29T19:53:26.623Z,52.13
2018-12-29T19:55:55.052Z,52.13
2018-12-29T19:58:23.566Z,50.80
2018-12-29T20:00:52.148Z,47.23
2018-12-29T20:03:20.596Z,43.78
2018-12-29T20:05:49.294Z,43.33
2018-12-29T20:08:17.768Z,38.35
2018-12-29T20:10:46.198Z,44.45
2018-12-29T20:13:14.625Z,40.00
2018-12-29T20:15:43.147Z,46.20
2018-12-29T20:18:11.679Z,35.70
2018-12-29T20:20:40.203Z,38.48
2018-12-29T20:23:08.656Z,38.30
2018-12-29T20:25:37.167Z,38.00
2018-12-29T20:28:05.620Z,36.25
2018-12-29T20:30:34.214Z,33.50
2018-12-29T20:33:02.683Z,45.23
2018-12-29T20:35:31.146Z,34.95
2018-12-29T20:37:59.578Z,32.45
2018-12-29T20:40:28.050Z,40.17
2018-12-29T20:42:58.086Z,30.40
2018-12-29T20:45:26.607Z,34.63
2018-12-29T20:47:55.044Z,31.85
2018-12-29T20:50:23.923Z,33.02
2018-12-29T20:52:52.350Z,27.80
2018-12-29T20:55:20.783Z,38.17
2018-12-29T20:57:49.314Z,29.27
2018-12-29T21:00:17.795Z,31.68
2018-12-29T21:02:46.311Z,36.42
2018-12-29T21:05:14.843Z,39.40
2018-12-29T21:07:43.304Z,36.60
2018-12-29T21:10:11.735Z,39.20
2018-12-29T21:12:40.209Z,38.08
2018-12-29T21:15:08.710Z,37.03
2018-12-29T21:17:37.250Z,39.42
2018-12-29T21:20:07.103Z,40.65
2018-12-29T21:22:35.626Z,46.95
2018-12-29T21:25:04.963Z,39.67
2018-12-29T21:27:33.434Z,36.03
2018-12-29T21:30:02.002Z,36.33
2018-12-29T21:32:30.687Z,33.95
2018-12-29T21:34:59.175Z,35.58
2018-12-29T21:37:27.679Z,38.92
2018-12-29T21:39:56.215Z,34.08
2018-12-29T21:42:24.736Z,28.20
2018-12-29T21:44:53.236Z,33.98
2018-12-29T21:47:23.226Z,28.85
2018-12-29T21:49:51.718Z,29.30
2018-12-29T21:52:20.212Z,35.90
2018-12-29T21:54:48.647Z,34.85
2018-12-29T21:57:17.084Z,37.75
2018-12-29T21:59:46.011Z,36.05
2018-12-29T22:02:14.514Z,23.45
2018-12-29T22:04:42.950Z,22.13
2018-12-29T22:07:11.395Z,21.82
2018-12-29T22:09:39.987Z,26.57
2018-12-29T22:12:08.492Z,21.20
2018-12-29T22:14:36.966Z,20.10
2018-12-29T22:17:05.471Z,16.27
2018-12-29T22:19:33.983Z,15.30
2018-12-29T22:22:02.529Z,14.98
2018-12-29T22:24:30.982Z,13.65
2018-12-29T22:26:59.874Z,13.70
2018-12-29T22:29:28.375Z,7.28
2018-12-29T22:31:56.877Z,10.32
2018-12-29T22:34:25.331Z,9.20
2018-12-29T22:36:53.823Z,9.08
2018-12-29T22:39:22.343Z,7.53
2018-12-29T22:41:50.782Z,8.45
2018-12-29T22:44:19.314Z,11.53
2018-12-29T22:46:47.803Z,9.43
2018-12-29T22:49:16.262Z,9.88
2018-12-29T22:51:44.768Z,11.00
2018-12-29T22:54:13.651Z,14.90
2018-12-29T22:56:42.115Z,10.80
2018-12-29T22:59:10.637Z,11.80
2018-12-29T23:01:39.172Z,11.90
2018-12-29T23:04:07.671Z,13.65
2018-12-29T23:06:36.260Z,14.58
2018-12-29T23:09:06.608Z,14.68
2018-12-29T23:11:35.142Z,12.75
2018-12-29T23:14:03.648Z,12.53
2018-12-29T23:16:32.107Z,17.52
2018-12-29T23:19:00.919Z,15.98
2018-12-29T23:21:29.458Z,12.63
2018-12-29T23:24:00.011Z,17.48
2018-12-29T23:26:28.091Z,22.45
2018-12-29T23:28:56.510Z,19.65
2018-12-29T23:31:25.046Z,18.67
2018-12-29T23:33:53.571Z,19.60
2018-12-29T23:36:22.290Z,22.22
2018-12-29T23:38:50.804Z,18.30
2018-12-29T23:41:19.261Z,19.10
2018-12-29T23:43:51.064Z,21.85
2018-12-29T23:46:19.515Z,21.87
2018-12-29T23:48:48.024Z,20.35
2018-12-29T23:51:16.825Z,17.07
2018-12-29T23:53:45.275Z,21.73
2018-12-29T23:56:14.079Z,18.85
2018-12-29T23:58:42.946Z,20.65
